Time;durP1;ratioP1;P1;durP2;ratioP2;P2;SDS_P1;SDS_P2;PMS_P1;PMS_P2;Temp;Humidity;BMP_temperature;BMP_pressure;BME280_temperature;BME280_humidity;BME280_pressure;Samples;Min_cycle;Max_cycle;Signal;HPM_P1;HPM_P2
2022/05/28 00:00:17;;;;;;;;;;;15.60;45.80;;;;;;5054650;28;19928;-85
2022/05/28 00:02:43;;;;;;;;;;;15.50;45.80;;;;;;5054921;28;19912;-84
2022/05/28 00:05:09;;;;;;;;;;;15.50;45.70;;;;;;5038030;28;19951;-85
2022/05/28 00:07:34;;;;;;;;;;;15.50;45.90;;;;;;5038468;28;19957;-84
2022/05/28 00:10:00;;;;;;;;;;;15.50;45.90;;;;;;5055399;28;19919;-85
2022/05/28 00:12:29;;;;;;;;;;;15.40;46.00;;;;;;5038093;28;20008;-85
2022/05/28 00:14:55;;;;;;;;;;;15.50;46.40;;;;;;5055015;28;19913;-85
2022/05/28 00:17:20;;;;;;;;;;;15.60;46.60;;;;;;5056307;28;19912;-85
2022/05/28 00:19:46;;;;;;;;;;;15.70;46.60;;;;;;5055933;28;19919;-85
2022/05/28 00:22:11;;;;;;;;;;;15.80;46.50;;;;;;5054817;28;19925;-84
2022/05/28 00:24:37;;;;;;;;;;;16.00;46.30;;;;;;5054315;28;19920;-85
2022/05/28 00:27:03;;;;;;;;;;;16.10;46.10;;;;;;5038357;28;19917;-85
2022/05/28 00:29:29;;;;;;;;;;;16.20;46.00;;;;;;5038645;28;19999;-85
2022/05/28 00:31:54;;;;;;;;;;;16.30;45.90;;;;;;5056634;28;19971;-85
2022/05/28 00:34:21;;;;;;;;;;;16.40;45.80;;;;;;5064325;28;19968;-85
2022/05/28 00:36:46;;;;;;;;;;;16.40;45.70;;;;;;5044816;28;20376;-84
2022/05/28 00:39:12;;;;;;;;;;;16.50;45.60;;;;;;5057707;28;19913;-86
2022/05/28 00:41:37;;;;;;;;;;;16.50;45.60;;;;;;5057474;28;20301;-86
2022/05/28 00:44:05;;;;;;;;;;;16.50;45.60;;;;;;5055642;28;19955;-86
2022/05/28 00:46:30;;;;;;;;;;;16.40;45.30;;;;;;5038600;28;19917;-86
2022/05/28 00:48:57;;;;;;;;;;;16.30;45.30;;;;;;5056652;28;20265;-86
2022/05/28 00:51:27;;;;;;;;;;;16.20;45.50;;;;;;5038681;28;19916;-86
2022/05/28 00:53:54;;;;;;;;;;;16.10;45.50;;;;;;5055794;28;20440;-86
2022/05/28 00:56:22;;;;;;;;;;;16.00;45.60;;;;;;5057380;28;19917;-86
2022/05/28 00:58:48;;;;;;;;;;;15.90;46.00;;;;;;5056175;28;19913;-86
2022/05/28 01:01:15;;;;;;;;;;;15.80;46.20;;;;;;5039215;28;20044;-86
2022/05/28 01:03:56;;;;;;;;;;;15.70;46.40;;;;;;5056815;28;19925;-86
2022/05/28 01:06:49;;;;;;;;;;;15.70;46.50;;;;;;5056817;28;20012;-86
2022/05/28 01:09:24;;;;;;;;;;;15.60;46.60;;;;;;5034644;28;20246;-87
2022/05/28 01:11:59;;;;;;;;;;;15.50;46.70;;;;;;5038057;28;19916;-86
2022/05/28 01:14:31;;;;;;;;;;;15.40;47.10;;;;;;5038382;28;20065;-86
2022/05/28 01:16:59;;;;;;;;;;;15.30;47.20;;;;;;5037679;28;19917;-85
2022/05/28 01:19:43;;;;;;;;;;;15.30;47.30;;;;;;5037879;28;20063;-86
2022/05/28 01:22:15;;;;;;;;;;;15.30;47.50;;;;;;5037731;28;19960;-85
2022/05/28 01:24:43;;;;;;;;;;;15.20;47.70;;;;;;5055650;28;19926;-86
2022/05/28 01:27:10;;;;;;;;;;;15.10;47.60;;;;;;5037519;28;19987;-86
2022/05/28 01:29:39;;;;;;;;;;;15.10;47.60;;;;;;5055274;28;19958;-86
2022/05/28 01:32:05;;;;;;;;;;;15.10;47.80;;;;;;5038038;28;20253;-86
2022/05/28 01:34:31;;;;;;;;;;;15.10;47.90;;;;;;5053545;28;19924;-86
2022/05/28 01:36:58;;;;;;;;;;;15.20;48.00;;;;;;5054750;28;19917;-86
2022/05/28 01:39:24;;;;;;;;;;;15.30;47.90;;;;;;5052824;28;19916;-86
2022/05/28 01:41:53;;;;;;;;;;;15.30;47.90;;;;;;5036136;28;19979;-86
2022/05/28 01:44:21;;;;;;;;;;;15.30;47.70;;;;;;5053026;28;19917;-86
2022/05/28 01:46:47;;;;;;;;;;;15.20;47.70;;;;;;5054396;28;19982;-86
2022/05/28 01:49:14;;;;;;;;;;;15.20;47.80;;;;;;5054007;28;19912;-86
2022/05/28 01:51:42;;;;;;;;;;;15.10;48.10;;;;;;5053778;28;19916;-86
2022/05/28 01:54:12;;;;;;;;;;;15.10;48.10;;;;;;5035642;28;19912;-86
2022/05/28 01:56:38;;;;;;;;;;;15.10;48.30;;;;;;5035800;28;20292;-87
2022/05/28 01:59:04;;;;;;;;;;;15.10;48.30;;;;;;5052127;28;19924;-86
2022/05/28 02:01:30;;;;;;;;;;;15.00;48.60;;;;;;5054098;28;19932;-86
2022/05/28 02:03:57;;;;;;;;;;;15.00;48.60;;;;;;5035624;28;19959;-86
2022/05/28 02:06:22;;;;;;;;;;;15.00;48.90;;;;;;5035486;28;19917;-86
2022/05/28 02:08:49;;;;;;;;;;;14.90;48.90;;;;;;5053167;28;19920;-86
2022/05/28 02:11:16;;;;;;;;;;;14.90;48.70;;;;;;5052117;28;19920;-86
2022/05/28 02:14:08;;;;;;;;;;;14.90;48.90;;;;;;5052182;28;19967;-86
2022/05/28 02:16:39;;;;;;;;;;;14.90;49.00;;;;;;5048309;28;19917;-86
2022/05/28 02:19:08;;;;;;;;;;;14.90;49.00;;;;;;5035418;28;19916;-87
2022/05/28 02:21:45;;;;;;;;;;;14.90;49.00;;;;;;5035604;28;19960;-86
2022/05/28 02:24:21;;;;;;;;;;;15.00;49.00;;;;;;5053203;28;20269;-86
2022/05/28 02:26:48;;;;;;;;;;;15.00;49.20;;;;;;5052092;28;19956;-86
2022/05/28 02:29:15;;;;;;;;;;;15.10;49.30;;;;;;5053383;28;19917;-86
2022/05/28 02:31:48;;;;;;;;;;;15.20;49.50;;;;;;5054459;28;20004;-86
2022/05/28 02:34:17;;;;;;;;;;;15.20;49.40;;;;;;5060205;28;19947;-86
2022/05/28 02:36:42;;;;;;;;;;;15.20;49.50;;;;;;5038055;28;19966;-85
2022/05/28 02:39:08;;;;;;;;;;;15.30;49.50;;;;;;5036975;28;19917;-86
2022/05/28 02:41:34;;;;;;;;;;;15.40;49.50;;;;;;5035782;28;20261;-86
2022/05/28 02:43:59;;;;;;;;;;;15.40;49.60;;;;;;5018611;28;19917;-87
2022/05/28 02:46:25;;;;;;;;;;;15.40;49.50;;;;;;5053688;28;20006;-86
2022/05/28 02:48:50;;;;;;;;;;;15.30;49.40;;;;;;5035770;28;19912;-86
2022/05/28 02:51:18;;;;;;;;;;;15.30;49.50;;;;;;5051155;28;19921;-86
2022/05/28 02:53:44;;;;;;;;;;;15.30;49.70;;;;;;5034675;28;19946;-87
2022/05/28 02:56:10;;;;;;;;;;;15.20;49.60;;;;;;5053659;28;20342;-86
2022/05/28 02:58:36;;;;;;;;;;;15.20;49.70;;;;;;5038317;28;19913;-86
2022/05/28 03:01:03;;;;;;;;;;;15.20;50.00;;;;;;5038383;28;19966;-86
2022/05/28 03:03:28;;;;;;;;;;;15.10;50.10;;;;;;5056640;28;19935;-86
2022/05/28 03:05:55;;;;;;;;;;;15.10;50.10;;;;;;5054710;28;19916;-84
2022/05/28 03:08:22;;;;;;;;;;;15.20;50.50;;;;;;5055118;28;19913;-86
2022/05/28 03:10:47;;;;;;;;;;;15.20;50.50;;;;;;5054575;28;20066;-86
2022/05/28 03:13:13;;;;;;;;;;;15.30;50.30;;;;;;5056619;28;19945;-86
2022/05/28 03:15:38;;;;;;;;;;;15.30;50.20;;;;;;5056072;28;19939;-86
2022/05/28 03:18:04;;;;;;;;;;;15.30;50.20;;;;;;5055855;28;19917;-86
2022/05/28 03:20:30;;;;;;;;;;;15.30;50.00;;;;;;5037604;28;19960;-87
2022/05/28 03:22:56;;;;;;;;;;;15.30;50.00;;;;;;5055816;28;19917;-86
2022/05/28 03:25:22;;;;;;;;;;;15.20;49.90;;;;;;5055454;28;19923;-85
2022/05/28 03:27:47;;;;;;;;;;;15.20;49.80;;;;;;5056008;28;20007;-86
2022/05/28 03:30:13;;;;;;;;;;;15.10;50.20;;;;;;5054631;28;19929;-85
2022/05/28 03:32:38;;;;;;;;;;;15.10;50.30;;;;;;5037717;28;19927;-86
2022/05/28 03:35:04;;;;;;;;;;;15.10;50.30;;;;;;5055591;28;19970;-86
2022/05/28 03:37:30;;;;;;;;;;;15.10;50.60;;;;;;5055184;28;19978;-86
2022/05/28 03:39:56;;;;;;;;;;;15.00;51.00;;;;;;5055295;28;19909;-86
2022/05/28 03:42:21;;;;;;;;;;;14.90;50.80;;;;;;5037305;28;20046;-86
2022/05/28 03:44:46;;;;;;;;;;;14.90;51.10;;;;;;5054040;28;19974;-86
2022/05/28 03:47:12;;;;;;;;;;;14.90;51.40;;;;;;5055572;28;19916;-86
2022/05/28 03:49:39;;;;;;;;;;;14.90;51.40;;;;;;5055289;28;20368;-86
2022/05/28 03:52:04;;;;;;;;;;;14.90;51.40;;;;;;5037601;28;19943;-86
2022/05/28 03:54:30;;;;;;;;;;;14.90;51.50;;;;;;5037313;28;19999;-86
2022/05/28 03:57:00;;;;;;;;;;;14.90;51.50;;;;;;5038177;28;20379;-86
2022/05/28 03:59:26;;;;;;;;;;;15.00;51.60;;;;;;5054783;28;20007;-86
2022/05/28 04:01:53;;;;;;;;;;;15.20;52.10;;;;;;5053364;28;19964;-86
2022/05/28 04:04:19;;;;;;;;;;;15.40;52.80;;;;;;5038179;28;20011;-86
2022/05/28 04:06:44;;;;;;;;;;;15.60;53.00;;;;;;5054626;28;19913;-86
2022/05/28 04:09:09;;;;;;;;;;;16.00;53.10;;;;;;5055111;28;19913;-86
2022/05/28 04:11:38;;;;;;;;;;;16.30;52.90;;;;;;5053858;28;20265;-85
2022/05/28 04:14:04;;;;;;;;;;;16.70;52.80;;;;;;5053570;28;20234;-86
2022/05/28 04:16:30;;;;;;;;;;;17.00;52.50;;;;;;5054844;28;19986;-87
2022/05/28 04:18:56;;;;;;;;;;;17.40;52.10;;;;;;5036866;28;19955;-86
2022/05/28 04:21:21;;;;;;;;;;;17.80;51.50;;;;;;5055125;28;20537;-87
2022/05/28 04:23:47;;;;;;;;;;;18.10;51.00;;;;;;5055469;28;19912;-86
2022/05/28 04:26:12;;;;;;;;;;;18.50;50.50;;;;;;5055324;28;19916;-87
2022/05/28 04:28:38;;;;;;;;;;;18.80;49.60;;;;;;5055140;28;20110;-87
2022/05/28 04:31:03;;;;;;;;;;;19.20;49.00;;;;;;5053467;28;19944;-87
2022/05/28 04:33:29;;;;;;;;;;;19.50;48.30;;;;;;5036664;28;20265;-87
2022/05/28 04:35:54;;;;;;;;;;;19.80;47.90;;;;;;5054274;28;19916;-87
2022/05/28 04:38:20;;;;;;;;;;;20.20;47.30;;;;;;5054897;28;20577;-86
2022/05/28 04:40:45;;;;;;;;;;;20.50;46.30;;;;;;5036252;28;20015;-88
2022/05/28 04:43:11;;;;;;;;;;;20.80;45.80;;;;;;5054146;28;19967;-87
2022/05/28 04:45:36;;;;;;;;;;;21.10;45.40;;;;;;5054705;28;19913;-87
2022/05/28 04:48:02;;;;;;;;;;;21.50;44.60;;;;;;5037132;28;20288;-86
2022/05/28 04:50:27;;;;;;;;;;;21.80;44.00;;;;;;5055429;28;20384;-86
2022/05/28 04:52:53;;;;;;;;;;;22.20;43.30;;;;;;5036282;28;19913;-87
2022/05/28 04:55:18;;;;;;;;;;;22.60;42.30;;;;;;5054167;28;19913;-87
2022/05/28 04:57:44;;;;;;;;;;;22.80;41.20;;;;;;5054456;28;20008;-87
2022/05/28 05:00:16;;;;;;;;;;;23.10;40.40;;;;;;5054257;28;19913;-87
2022/05/28 05:02:41;;;;;;;;;;;23.30;40.10;;;;;;5036413;28;20319;-87
2022/05/28 05:05:07;;;;;;;;;;;23.70;39.40;;;;;;5052738;28;19909;-86
2022/05/28 05:07:33;;;;;;;;;;;24.00;39.10;;;;;;5035786;28;19935;-86
2022/05/28 05:09:58;;;;;;;;;;;24.30;38.90;;;;;;5052958;28;20464;-87
2022/05/28 05:12:24;;;;;;;;;;;24.60;37.80;;;;;;5053669;28;20296;-87
2022/05/28 05:14:49;;;;;;;;;;;24.60;36.70;;;;;;5054166;28;19954;-87
2022/05/28 05:17:15;;;;;;;;;;;24.40;35.70;;;;;;5053947;28;19921;-88
2022/05/28 05:19:40;;;;;;;;;;;24.20;34.90;;;;;;5052237;28;19943;-85
2022/05/28 05:22:05;;;;;;;;;;;23.80;34.70;;;;;;5053524;28;19928;-88
2022/05/28 05:24:33;;;;;;;;;;;23.40;35.00;;;;;;5052187;28;19909;-87
2022/05/28 05:27:02;;;;;;;;;;;23.30;35.70;;;;;;5051788;28;19924;-87
2022/05/28 05:29:28;;;;;;;;;;;23.20;35.50;;;;;;5035383;28;19912;-87
2022/05/28 05:31:53;;;;;;;;;;;23.00;35.60;;;;;;5054408;28;19920;-87
2022/05/28 05:34:19;;;;;;;;;;;23.00;35.40;;;;;;5052955;28;19917;-87
2022/05/28 05:36:44;;;;;;;;;;;23.00;35.20;;;;;;5053948;28;20312;-88
2022/05/28 05:39:10;;;;;;;;;;;23.00;35.30;;;;;;5053900;28;19956;-87
2022/05/28 05:41:39;;;;;;;;;;;23.00;35.50;;;;;;5053861;28;19928;-87
2022/05/28 05:44:04;;;;;;;;;;;23.20;35.90;;;;;;5036831;28;19938;-87
2022/05/28 05:46:29;;;;;;;;;;;23.70;36.10;;;;;;5036621;28;20019;-87
2022/05/28 05:48:55;;;;;;;;;;;24.20;35.60;;;;;;5053784;28;19917;-87
2022/05/28 05:51:20;;;;;;;;;;;24.70;34.90;;;;;;5036273;28;19920;-87
2022/05/28 05:53:46;;;;;;;;;;;25.30;34.70;;;;;;5052289;28;19920;-86
2022/05/28 05:56:14;;;;;;;;;;;25.80;33.90;;;;;;5054227;28;20126;-86
2022/05/28 05:58:40;;;;;;;;;;;26.20;32.10;;;;;;5054517;28;19912;-87
2022/05/28 06:01:07;;;;;;;;;;;26.50;31.50;;;;;;5054001;28;19974;-86
2022/05/28 06:03:33;;;;;;;;;;;26.80;30.70;;;;;;5054668;28;20215;-86
2022/05/28 06:05:59;;;;;;;;;;;27.10;29.90;;;;;;5035672;28;20019;-87
2022/05/28 06:08:25;;;;;;;;;;;27.40;29.80;;;;;;5054806;28;19913;-86
2022/05/28 06:10:50;;;;;;;;;;;27.90;30.10;;;;;;5036129;28;19920;-87
2022/05/28 06:13:16;;;;;;;;;;;28.30;29.80;;;;;;5053876;28;19952;-87
2022/05/28 06:15:41;;;;;;;;;;;28.80;28.70;;;;;;5053060;28;19913;-87
2022/05/28 06:18:07;;;;;;;;;;;29.10;28.40;;;;;;5054606;28;19967;-87
2022/05/28 06:20:34;;;;;;;;;;;29.50;27.90;;;;;;5039478;28;19921;-87
2022/05/28 06:23:01;;;;;;;;;;;29.80;27.80;;;;;;5054329;28;19920;-86
2022/05/28 06:25:27;;;;;;;;;;;30.40;27.20;;;;;;5036000;28;19917;-86
2022/05/28 06:27:53;;;;;;;;;;;30.70;25.50;;;;;;5038488;28;19978;-86
2022/05/28 06:30:18;;;;;;;;;;;31.00;23.90;;;;;;5036736;28;19913;-86
2022/05/28 06:32:44;;;;;;;;;;;31.10;23.80;;;;;;5061513;28;19913;-86
2022/05/28 06:35:09;;;;;;;;;;;31.00;23.50;;;;;;5061496;28;19909;-85
2022/05/28 06:37:36;;;;;;;;;;;30.60;23.30;;;;;;5058120;28;19916;-87
2022/05/28 06:40:02;;;;;;;;;;;30.20;23.20;;;;;;5037963;28;19909;-87
2022/05/28 06:42:28;;;;;;;;;;;29.90;23.50;;;;;;5037966;28;19971;-86
2022/05/28 06:44:55;;;;;;;;;;;29.70;24.10;;;;;;5038208;28;20336;-86
2022/05/28 06:47:21;;;;;;;;;;;29.50;24.20;;;;;;5037810;28;19912;-86
2022/05/28 06:51:01;;;;;;;;;;;29.30;24.10;;;;;;5038331;28;19979;-86
2022/05/28 06:52:32;;;;;;;;;;;29.10;24.50;;;;;;5056300;28;19924;-86
2022/05/28 06:54:57;;;;;;;;;;;28.80;24.50;;;;;;5054341;28;20225;-87
2022/05/28 06:57:23;;;;;;;;;;;28.50;24.40;;;;;;5056311;28;19927;-86
2022/05/28 06:59:48;;;;;;;;;;;28.00;24.40;;;;;;5055632;28;19908;-87
2022/05/28 07:02:14;;;;;;;;;;;27.70;24.90;;;;;;5054481;28;19931;-86
2022/05/28 07:04:39;;;;;;;;;;;27.30;25.30;;;;;;5054650;28;19909;-86
2022/05/28 07:07:05;;;;;;;;;;;27.00;25.80;;;;;;5056270;28;19924;-86
2022/05/28 07:09:30;;;;;;;;;;;26.60;27.00;;;;;;5056006;28;19963;-86
2022/05/28 07:11:56;;;;;;;;;;;26.00;27.60;;;;;;5055418;28;19917;-86
2022/05/28 07:14:22;;;;;;;;;;;25.20;28.80;;;;;;5037693;28;20012;-86
2022/05/28 07:16:47;;;;;;;;;;;24.60;30.80;;;;;;5054144;28;19924;-86
2022/05/28 07:19:13;;;;;;;;;;;24.00;32.30;;;;;;5037668;28;19913;-86
2022/05/28 07:21:38;;;;;;;;;;;23.40;33.40;;;;;;5054724;28;20376;-86
2022/05/28 07:24:04;;;;;;;;;;;22.90;34.50;;;;;;5037491;28;19924;-86
2022/05/28 07:26:29;;;;;;;;;;;22.50;35.80;;;;;;5054024;28;20353;-86
2022/05/28 07:28:55;;;;;;;;;;;22.00;36.70;;;;;;5037228;28;20308;-85
2022/05/28 07:31:21;;;;;;;;;;;21.50;37.80;;;;;;5055619;28;19935;-86
2022/05/28 07:33:47;;;;;;;;;;;21.00;38.60;;;;;;5037848;28;20320;-86
2022/05/28 07:36:14;;;;;;;;;;;20.70;39.40;;;;;;5038604;28;19935;-86
2022/05/28 07:38:41;;;;;;;;;;;20.50;40.20;;;;;;5039739;28;19963;-85
2022/05/28 07:41:15;;;;;;;;;;;20.50;40.60;;;;;;5039910;28;19947;-87
2022/05/28 07:43:40;;;;;;;;;;;20.50;40.30;;;;;;5039366;28;19913;-86
2022/05/28 07:46:10;;;;;;;;;;;20.50;40.20;;;;;;5039808;28;19913;-87
2022/05/28 07:48:35;;;;;;;;;;;20.70;41.20;;;;;;5038363;28;19931;-86
2022/05/28 07:51:01;;;;;;;;;;;21.30;40.80;;;;;;5055560;28;19995;-86
2022/05/28 07:53:26;;;;;;;;;;;22.10;40.90;;;;;;5057870;28;19913;-87
2022/05/28 07:55:52;;;;;;;;;;;23.10;39.00;;;;;;5059251;28;19962;-87
2022/05/28 07:58:19;;;;;;;;;;;23.80;37.20;;;;;;5039364;28;20262;-87
2022/05/28 08:00:45;;;;;;;;;;;24.30;34.50;;;;;;5055771;28;19920;-87
2022/05/28 08:03:11;;;;;;;;;;;24.40;32.60;;;;;;5056178;28;19983;-87
2022/05/28 08:05:37;;;;;;;;;;;24.30;31.90;;;;;;5056859;28;19913;-87
2022/05/28 08:08:03;;;;;;;;;;;24.20;31.80;;;;;;5039050;28;19912;-87
2022/05/28 08:10:29;;;;;;;;;;;24.10;32.00;;;;;;5056809;28;20423;-87
2022/05/28 08:12:58;;;;;;;;;;;24.00;32.00;;;;;;5038769;28;19913;-88
2022/05/28 08:15:25;;;;;;;;;;;24.10;32.20;;;;;;5056571;28;19995;-87
2022/05/28 08:17:50;;;;;;;;;;;24.20;32.20;;;;;;5039163;28;19913;-88
2022/05/28 08:20:16;;;;;;;;;;;24.30;31.50;;;;;;5056850;28;20357;-87
2022/05/28 08:25:25;;;;;;;;;;;24.40;32.10;;;;;;5057567;28;19974;-87
2022/05/28 08:27:51;;;;;;;;;;;24.60;32.10;;;;;;5055261;28;19954;-87
2022/05/28 08:30:16;;;;;;;;;;;25.10;32.40;;;;;;5057083;28;19982;-88
2022/05/28 08:32:42;;;;;;;;;;;25.80;32.10;;;;;;5038204;28;19913;-88
2022/05/28 08:35:07;;;;;;;;;;;26.40;31.30;;;;;;5038183;28;20388;-88
2022/05/28 08:37:33;;;;;;;;;;;27.00;30.60;;;;;;5056149;28;19913;-87
2022/05/28 08:39:58;;;;;;;;;;;27.70;29.80;;;;;;5056361;28;19916;-87
2022/05/28 08:42:25;;;;;;;;;;;28.60;29.50;;;;;;5057198;28;19960;-87
2022/05/28 08:44:52;;;;;;;;;;;29.50;28.10;;;;;;5056557;28;19909;-86
2022/05/28 08:47:21;;;;;;;;;;;29.80;26.20;;;;;;5039845;28;20349;-86
2022/05/28 08:49:47;;;;;;;;;;;29.60;25.40;;;;;;5056990;28;20007;-88
2022/05/28 08:52:19;;;;;;;;;;;29.80;25.80;;;;;;5037651;28;19913;-87
2022/05/28 08:55:06;;;;;;;;;;;30.30;25.00;;;;;;5036426;28;19913;-87
2022/05/28 08:57:47;;;;;;;;;;;30.60;23.70;;;;;;5037617;28;20276;-87
2022/05/28 09:00:18;;;;;;;;;;;30.60;23.10;;;;;;5057218;28;19909;-88
2022/05/28 09:02:47;;;;;;;;;;;30.40;23.10;;;;;;5039258;28;19917;-87
2022/05/28 09:05:19;;;;;;;;;;;30.10;22.60;;;;;;5056255;28;19967;-87
2022/05/28 09:07:45;;;;;;;;;;;29.40;23.00;;;;;;5032563;28;19913;-87
2022/05/28 09:10:10;;;;;;;;;;;28.90;23.50;;;;;;5050931;28;19913;-87
2022/05/28 09:12:52;;;;;;;;;;;28.20;24.30;;;;;;5051580;28;19913;-86
2022/05/28 09:15:18;;;;;;;;;;;27.50;24.60;;;;;;5034269;28;19916;-87
2022/05/28 09:17:46;;;;;;;;;;;26.90;25.20;;;;;;5033397;28;19921;-88
2022/05/28 09:20:14;;;;;;;;;;;26.30;26.30;;;;;;5045476;28;19944;-88
2022/05/28 09:22:39;;;;;;;;;;;25.70;28.10;;;;;;5055944;28;19920;-88
2022/05/28 09:25:05;;;;;;;;;;;25.00;29.70;;;;;;5029892;28;20058;-88
2022/05/28 09:27:58;;;;;;;;;;;24.30;32.10;;;;;;5042008;28;20000;-87
2022/05/28 09:30:42;;;;;;;;;;;23.70;33.30;;;;;;5055594;28;20007;-88
2022/05/28 09:33:28;;;;;;;;;;;23.20;34.20;;;;;;5037569;28;19909;-87
2022/05/28 09:36:05;;;;;;;;;;;22.70;34.90;;;;;;5036918;28;20020;-87
2022/05/28 09:38:41;;;;;;;;;;;22.20;37.20;;;;;;5055311;28;20390;-87
2022/05/28 09:41:27;;;;;;;;;;;21.70;39.40;;;;;;5037779;28;19932;-86
2022/05/28 09:43:52;;;;;;;;;;;21.30;40.50;;;;;;5037698;28;20399;-87
2022/05/28 09:46:38;;;;;;;;;;;21.00;41.30;;;;;;5055343;28;19917;-86
2022/05/28 09:49:10;;;;;;;;;;;20.90;41.80;;;;;;5036708;28;19916;-87
2022/05/28 09:51:36;;;;;;;;;;;21.20;41.90;;;;;;5055145;28;19923;-88
2022/05/28 09:54:20;;;;;;;;;;;21.30;41.70;;;;;;5036835;28;19920;-87
2022/05/28 09:57:09;;;;;;;;;;;21.50;41.70;;;;;;5054454;28;19944;-88
2022/05/28 09:59:37;;;;;;;;;;;22.30;41.80;;;;;;5040137;28;20413;-88
2022/05/28 10:02:13;;;;;;;;;;;23.30;40.00;;;;;;5038609;28;19948;-87
2022/05/28 10:04:49;;;;;;;;;;;24.10;37.90;;;;;;5055123;28;19912;-88
2022/05/28 10:07:25;;;;;;;;;;;24.50;35.20;;;;;;5055388;28;20003;-87
2022/05/28 10:09:53;;;;;;;;;;;24.40;35.60;;;;;;5055978;28;19913;-89
2022/05/28 10:12:23;;;;;;;;;;;23.70;41.40;;;;;;5038637;28;19967;-89
2022/05/28 10:14:58;;;;;;;;;;;22.80;44.90;;;;;;5038746;28;19908;-89
2022/05/28 10:17:25;;;;;;;;;;;22.20;48.60;;;;;;5055054;28;20250;-88
2022/05/28 10:19:55;;;;;;;;;;;21.70;51.10;;;;;;5055513;28;20435;-88
2022/05/28 10:22:21;;;;;;;;;;;21.50;53.30;;;;;;5038575;28;19967;-88
2022/05/28 10:24:50;;;;;;;;;;;21.70;54.80;;;;;;5055085;28;20403;-88
2022/05/28 10:27:23;;;;;;;;;;;22.10;57.30;;;;;;5036862;28;19917;-88
2022/05/28 10:29:49;;;;;;;;;;;22.90;59.30;;;;;;5055651;28;19913;-89
2022/05/28 10:32:33;;;;;;;;;;;24.00;59.80;;;;;;5055294;28;19923;-89
2022/05/28 10:35:00;;;;;;;;;;;25.00;58.90;;;;;;5038315;28;19920;-88
2022/05/28 10:37:25;;;;;;;;;;;25.60;57.00;;;;;;5054797;28;20292;-89
2022/05/28 10:40:01;;;;;;;;;;;26.30;57.80;;;;;;5036135;28;19917;-88
2022/05/28 10:42:26;;;;;;;;;;;27.20;57.20;;;;;;5037511;28;19956;-88
2022/05/28 10:44:52;;;;;;;;;;;27.90;54.30;;;;;;5036127;28;19982;-87
2022/05/28 10:47:23;;;;;;;;;;;28.40;53.60;;;;;;5036249;28;19909;-88
2022/05/28 10:50:01;;;;;;;;;;;28.80;52.70;;;;;;5036524;28;19916;-88
2022/05/28 10:52:49;;;;;;;;;;;28.80;47.50;;;;;;5054534;28;19909;-88
2022/05/28 10:55:22;;;;;;;;;;;28.20;46.60;;;;;;5054409;28;20283;-89
2022/05/28 10:57:55;;;;;;;;;;;27.60;47.20;;;;;;5036267;28;20027;-88
2022/05/28 11:00:37;;;;;;;;;;;27.50;49.30;;;;;;5053619;28;19958;-87
2022/05/28 11:03:09;;;;;;;;;;;27.30;48.10;;;;;;5053615;28;19917;-88
2022/05/28 11:05:52;;;;;;;;;;;27.10;45.60;;;;;;5054040;28;20365;-88
2022/05/28 11:08:38;;;;;;;;;;;27.00;46.30;;;;;;5036695;28;19913;-88
2022/05/28 11:11:03;;;;;;;;;;;26.80;48.10;;;;;;5036331;28;19919;-87
2022/05/28 11:13:35;;;;;;;;;;;26.80;49.90;;;;;;5054705;28;19919;-88
2022/05/28 11:16:06;;;;;;;;;;;26.70;51.40;;;;;;5036876;28;19912;-87
2022/05/28 11:18:37;;;;;;;;;;;26.90;52.60;;;;;;5058019;28;20022;-89
2022/05/28 11:21:03;;;;;;;;;;;27.80;54.40;;;;;;5058276;28;20261;-88
2022/05/28 11:23:41;;;;;;;;;;;28.80;51.50;;;;;;5039646;28;19963;-88
2022/05/28 11:26:25;;;;;;;;;;;29.50;51.90;;;;;;5057227;28;20423;-87
2022/05/28 11:28:59;;;;;;;;;;;30.10;47.70;;;;;;5059325;28;19916;-87
2022/05/28 11:31:32;;;;;;;;;;;30.10;47.10;;;;;;5057996;28;19916;-88
2022/05/28 11:34:01;;;;;;;;;;;29.60;42.50;;;;;;5058904;28;19913;-85
2022/05/28 11:36:48;;;;;;;;;;;28.10;41.20;;;;;;5038249;28;19920;-86
2022/05/28 11:39:39;;;;;;;;;;;26.00;43.40;;;;;;5056224;28;19962;-87
2022/05/28 11:42:21;;;;;;;;;;;24.50;47.00;;;;;;5033766;28;20503;-87
2022/05/28 11:44:52;;;;;;;;;;;23.50;50.00;;;;;;5036452;28;19928;-88
2022/05/28 11:47:24;;;;;;;;;;;22.90;51.90;;;;;;5039451;28;20007;-88
2022/05/28 11:52:42;;;;;;;;;;;22.40;55.90;;;;;;5057037;28;19919;-87
2022/05/28 11:55:22;;;;;;;;;;;23.20;58.10;;;;;;5056606;28;19966;-87
2022/05/28 11:57:57;;;;;;;;;;;24.40;58.90;;;;;;5056595;28;19912;-88
2022/05/28 12:00:27;;;;;;;;;;;25.70;57.20;;;;;;5039551;28;19982;-88
2022/05/28 12:02:59;;;;;;;;;;;26.70;55.90;;;;;;5039351;28;19951;-87
2022/05/28 12:05:37;;;;;;;;;;;27.30;53.60;;;;;;5039027;28;19919;-88
2022/05/28 12:08:04;;;;;;;;;;;27.20;51.70;;;;;;5057211;28;19913;-87
2022/05/28 12:10:44;;;;;;;;;;;26.70;51.70;;;;;;5038321;28;19955;-87
2022/05/28 12:13:10;;;;;;;;;;;26.80;52.70;;;;;;5037819;28;19913;-87
2022/05/28 12:15:36;;;;;;;;;;;27.30;52.50;;;;;;5037764;28;19924;-89
2022/05/28 12:18:14;;;;;;;;;;;27.80;49.60;;;;;;5056043;28;20292;-88
2022/05/28 12:20:58;;;;;;;;;;;28.10;50.90;;;;;;5056335;28;20047;-87
2022/05/28 12:23:27;;;;;;;;;;;28.40;50.50;;;;;;5056101;28;19917;-87
2022/05/28 12:25:55;;;;;;;;;;;28.60;49.50;;;;;;5056270;28;20434;-87
2022/05/28 12:28:25;;;;;;;;;;;28.30;48.70;;;;;;5037647;28;19924;-86
2022/05/28 12:30:53;;;;;;;;;;;27.70;50.30;;;;;;5037942;28;19916;-87
2022/05/28 12:33:26;;;;;;;;;;;27.80;51.00;;;;;;5038328;28;20377;-88
2022/05/28 12:35:55;;;;;;;;;;;28.10;51.40;;;;;;5038157;28;20280;-87
2022/05/28 12:38:41;;;;;;;;;;;28.30;51.60;;;;;;5037872;28;19969;-87
2022/05/28 12:41:15;;;;;;;;;;;28.80;51.60;;;;;;5037308;28;19956;-85
2022/05/28 12:43:44;;;;;;;;;;;29.20;49.60;;;;;;5056224;28;19939;-86
2022/05/28 12:46:29;;;;;;;;;;;29.70;49.20;;;;;;5055038;28;19912;-87
2022/05/28 12:49:05;;;;;;;;;;;30.20;48.80;;;;;;5054184;28;20325;-86
2022/05/28 12:51:49;;;;;;;;;;;30.50;46.00;;;;;;5038082;28;19913;-86
2022/05/28 12:54:26;;;;;;;;;;;30.60;42.30;;;;;;5037702;28;20380;-86
2022/05/28 12:57:02;;;;;;;;;;;30.50;45.30;;;;;;5037373;28;20281;-85
2022/05/28 12:59:29;;;;;;;;;;;30.70;46.60;;;;;;5037106;28;19917;-88
2022/05/28 13:02:14;;;;;;;;;;;30.60;43.80;;;;;;5055043;28;20261;-88
2022/05/28 13:04:41;;;;;;;;;;;30.40;45.40;;;;;;5055670;28;19917;-88
2022/05/28 13:07:18;;;;;;;;;;;30.40;46.40;;;;;;5055219;28;19959;-87
2022/05/28 13:09:44;;;;;;;;;;;29.80;38.30;;;;;;5038121;28;19923;-87
2022/05/28 13:12:12;;;;;;;;;;;28.60;38.60;;;;;;5038033;28;20007;-87
2022/05/28 13:14:47;;;;;;;;;;;27.50;36.30;;;;;;5037902;28;19917;-87
2022/05/28 13:17:24;;;;;;;;;;;26.30;36.40;;;;;;5055002;28;19995;-88
2022/05/28 13:20:08;;;;;;;;;;;25.60;38.30;;;;;;5054144;28;20051;-87
2022/05/28 13:22:43;;;;;;;;;;;25.00;39.20;;;;;;5054797;28;19983;-87
2022/05/28 13:25:31;;;;;;;;;;;25.10;40.10;;;;;;5037419;28;19923;-88
2022/05/28 13:28:10;;;;;;;;;;;25.50;41.70;;;;;;5053905;28;20007;-87
2022/05/28 13:30:41;;;;;;;;;;;25.90;40.00;;;;;;5054620;28;19917;-88
2022/05/28 13:33:08;;;;;;;;;;;25.90;38.70;;;;;;5036390;28;20323;-88
2022/05/28 13:35:42;;;;;;;;;;;25.90;40.30;;;;;;5054830;28;19912;-87
2022/05/28 13:38:08;;;;;;;;;;;26.00;39.50;;;;;;5054589;28;20281;-86
2022/05/28 13:40:36;;;;;;;;;;;26.20;38.70;;;;;;5055117;28;19936;-87
2022/05/28 13:43:03;;;;;;;;;;;26.60;39.00;;;;;;5056049;28;20380;-87
2022/05/28 13:45:34;;;;;;;;;;;27.30;37.00;;;;;;5056100;28;19963;-87
2022/05/28 13:48:05;;;;;;;;;;;27.50;35.40;;;;;;5053939;28;19920;-89
2022/05/28 13:50:31;;;;;;;;;;;27.80;34.10;;;;;;5038711;28;19912;-88
2022/05/28 13:52:58;;;;;;;;;;;28.00;34.70;;;;;;5038665;28;20280;-86
2022/05/28 13:55:25;;;;;;;;;;;27.90;35.20;;;;;;5038267;28;19913;-87
2022/05/28 13:57:50;;;;;;;;;;;27.80;34.60;;;;;;5034150;28;19909;-87
2022/05/28 14:00:16;;;;;;;;;;;27.30;29.90;;;;;;5043969;28;19917;-87
2022/05/28 14:02:51;;;;;;;;;;;26.70;29.60;;;;;;5055442;28;20206;-88
2022/05/28 14:05:26;;;;;;;;;;;26.20;31.00;;;;;;5030610;28;19960;-87
2022/05/28 14:07:52;;;;;;;;;;;25.80;31.60;;;;;;5023350;28;19954;-87
2022/05/28 14:10:19;;;;;;;;;;;25.30;33.30;;;;;;5054481;28;20659;-85
2022/05/28 14:12:46;;;;;;;;;;;24.70;33.20;;;;;;5037771;28;19912;-86
2022/05/28 14:15:19;;;;;;;;;;;24.30;34.00;;;;;;5037795;28;19917;-87
2022/05/28 14:17:45;;;;;;;;;;;24.20;34.20;;;;;;5054163;28;19913;-87
2022/05/28 14:20:40;;;;;;;;;;;24.10;34.60;;;;;;5037842;28;19923;-86
2022/05/28 14:23:05;;;;;;;;;;;24.10;35.10;;;;;;5020274;28;20455;-87
2022/05/28 14:25:32;;;;;;;;;;;24.20;35.30;;;;;;5048151;28;19992;-88
2022/05/28 14:28:05;;;;;;;;;;;24.30;34.00;;;;;;5032692;28;19913;-87
2022/05/28 14:30:32;;;;;;;;;;;24.40;34.80;;;;;;5055297;28;19913;-87
2022/05/28 14:32:58;;;;;;;;;;;24.80;34.80;;;;;;5037151;28;19913;-88